Time;durP1;ratioP1;P1;durP2;ratioP2;P2;SDS_P1;SDS_P2;PMS_P1;PMS_P2;Temp;Humidity;BMP_temperature;BMP_pressure;BME280_temperature;BME280_humidity;BME280_pressure;Samples;Min_cycle;Max_cycle;Signal;HPM_P1;HPM_P2
2022/04/03 00:02:10;;;;;;;23.48;15.70;;;;;;;0.22;100.00;99364.59;4501647;31;20079;-74
2022/04/03 00:04:38;;;;;;;20.83;14.63;;;;;;;0.29;100.00;99367.25;4501867;31;20127;-73
2022/04/03 00:07:05;;;;;;;22.40;14.63;;;;;;;0.37;100.00;99369.09;4501592;31;20411;-74
2022/04/03 00:09:33;;;;;;;24.12;14.77;;;;;;;0.29;100.00;99373.31;4501838;31;20162;-74
2022/04/03 00:12:02;;;;;;;24.80;15.40;;;;;;;0.34;100.00;99374.22;4501457;31;20765;-74
2022/04/03 00:14:29;;;;;;;26.80;16.15;;;;;;;0.32;100.00;99375.94;4516665;31;20446;-74
2022/04/03 00:16:57;;;;;;;25.05;15.63;;;;;;;0.32;100.00;99382.81;4517409;31;20096;-73
2022/04/03 00:19:24;;;;;;;25.00;15.40;;;;;;;0.31;100.00;99381.09;4517391;31;20160;-74
2022/04/03 00:21:51;;;;;;;25.95;14.60;;;;;;;0.29;100.00;99388.84;4517388;31;20118;-74
2022/04/03 00:24:18;;;;;;;25.02;16.12;;;;;;;0.28;100.00;99384.50;4517444;31;20087;-74
2022/04/03 00:26:46;;;;;;;27.00;16.98;;;;;;;0.26;100.00;99386.22;4517536;31;20407;-73
2022/04/03 00:29:14;;;;;;;26.73;16.87;;;;;;;0.28;100.00;99381.91;4517349;31;20090;-74
2022/04/03 00:31:41;;;;;;;28.50;16.73;;;;;;;0.24;100.00;99391.34;4517436;31;20159;-74
2022/04/03 00:34:09;;;;;;;26.02;17.08;;;;;;;0.24;100.00;99390.50;4517422;31;20130;-74
2022/04/03 00:36:36;;;;;;;26.35;16.15;;;;;;;0.20;100.00;99394.75;4517190;31;20126;-74
2022/04/03 00:39:03;;;;;;;27.02;16.48;;;;;;;0.25;100.00;99394.84;4517384;31;20083;-73
2022/04/03 00:41:31;;;;;;;27.83;15.65;;;;;;;0.23;100.00;99391.34;4517087;31;20198;-74
2022/04/03 00:43:59;;;;;;;27.70;15.63;;;;;;;0.22;100.00;99394.81;4517260;31;20137;-74
2022/04/03 00:46:27;;;;;;;27.13;16.25;;;;;;;0.16;100.00;99397.31;4515771;31;20088;-73
2022/04/03 00:48:57;;;;;;;22.48;15.32;;;;;;;0.11;100.00;99402.44;4516981;31;20182;-73
2022/04/03 00:51:25;;;;;;;24.80;15.80;;;;;;;0.18;100.00;99398.19;4517053;31;20075;-73
2022/04/03 00:53:52;;;;;;;23.40;14.57;;;;;;;0.13;100.00;99405.87;4517003;31;20463;-73
2022/04/03 00:56:20;;;;;;;22.60;14.35;;;;;;;0.16;100.00;99402.47;4517065;31;20178;-73
2022/04/03 00:58:51;;;;;;;20.62;14.57;;;;;;;0.20;100.00;99412.03;4517091;31;20474;-73
2022/04/03 01:01:19;;;;;;;24.20;15.57;;;;;;;0.19;100.00;99410.28;4517008;31;20083;-73
2022/04/03 01:03:48;;;;;;;22.35;14.93;;;;;;;0.16;100.00;99410.25;4517015;31;20092;-73
2022/04/03 01:06:16;;;;;;;22.42;14.10;;;;;;;0.15;100.00;99417.16;4516904;31;20167;-73
2022/04/03 01:08:43;;;;;;;21.92;13.88;;;;;;;0.16;100.00;99412.84;4516926;31;20420;-73
2022/04/03 01:11:20;;;;;;;24.12;13.60;;;;;;;0.27;100.00;99420.75;4516704;31;20541;-73
2022/04/03 01:13:50;;;;;;;22.10;13.57;;;;;;;0.33;100.00;99413.94;4516675;31;20114;-73
2022/04/03 01:16:18;;;;;;;22.70;13.15;;;;;;;0.28;100.00;99425.94;4516812;31;20489;-73
2022/04/03 01:18:46;;;;;;;21.20;13.50;;;;;;;0.28;100.00;99428.53;4516670;31;20091;-73
2022/04/03 01:21:13;;;;;;;20.95;12.82;;;;;;;0.18;100.00;99437.06;4516792;31;20115;-73
2022/04/03 01:23:42;;;;;;;20.33;12.65;;;;;;;0.20;100.00;99435.34;4516674;31;20477;-73
2022/04/03 01:26:10;;;;;;;23.48;13.32;;;;;;;0.15;100.00;99432.69;4516752;31;20454;-73
2022/04/03 01:28:37;;;;;;;20.58;13.38;;;;;;;0.07;100.00;99436.00;4516888;31;20480;-73
2022/04/03 01:31:04;;;;;;;22.48;14.15;;;;;;;0.01;100.00;99443.72;4516329;31;20094;-73
2022/04/03 01:33:32;;;;;;;21.02;12.73;;;;;;;-0.01;100.00;99441.06;4516510;31;20155;-73
2022/04/03 01:36:00;;;;;;;21.65;14.25;;;;;;;0.02;100.00;99448.03;4516423;31;20104;-73
2022/04/03 01:38:28;;;;;;;20.75;13.52;;;;;;;-0.02;100.00;99449.69;4516400;31;20171;-73
2022/04/03 01:40:55;;;;;;;22.27;14.48;;;;;;;-0.06;100.00;99453.97;4516325;31;20083;-73
2022/04/03 01:43:22;;;;;;;23.75;13.73;;;;;;;-0.11;100.00;99454.72;4516261;31;20158;-73
2022/04/03 01:45:50;;;;;;;27.60;16.02;;;;;;;-0.10;100.00;99457.34;4516254;31;20103;-73
2022/04/03 01:48:18;;;;;;;24.15;14.00;;;;;;;-0.11;100.00;99457.31;4516179;31;20210;-73
2022/04/03 01:50:48;;;;;;;23.40;13.90;;;;;;;-0.09;100.00;99466.00;4516092;31;20613;-73
2022/04/03 01:53:16;;;;;;;25.62;14.77;;;;;;;-0.10;100.00;99462.53;4516105;31;20114;-73
2022/04/03 01:55:43;;;;;;;23.25;15.00;;;;;;;-0.11;100.00;99470.25;4516115;31;20099;-73
2022/04/03 01:58:10;;;;;;;20.65;13.43;;;;;;;-0.06;100.00;99469.50;4517349;31;20095;-73
2022/04/03 02:00:38;;;;;;;24.98;14.05;;;;;;;-0.02;100.00;99478.19;4518747;31;20148;-71
2022/04/03 02:03:08;;;;;;;25.90;15.50;;;;;;;-0.03;100.00;99484.22;4518344;31;20096;-72
2022/04/03 02:05:36;;;;;;;22.80;15.07;;;;;;;-0.01;100.00;99482.50;4518300;31;20125;-72
2022/04/03 02:08:04;;;;;;;23.23;13.40;;;;;;;0.08;100.00;99487.84;4518461;31;20171;-72
2022/04/03 02:10:33;;;;;;;21.87;14.00;;;;;;;0.23;100.00;99482.03;4518300;31;20147;-72
2022/04/03 02:13:00;;;;;;;21.40;14.20;;;;;;;0.15;100.00;99491.41;4518215;31;20451;-72
2022/04/03 02:15:28;;;;;;;21.05;13.75;;;;;;;0.08;100.00;99482.66;4518231;31;20115;-72
2022/04/03 02:17:55;;;;;;;23.62;14.20;;;;;;;0.10;100.00;99480.94;4518357;31;20734;-72
2022/04/03 02:20:22;;;;;;;23.67;13.25;;;;;;;0.06;100.00;99489.53;4518290;31;20079;-72
2022/04/03 02:22:49;;;;;;;21.77;13.80;;;;;;;0.05;100.00;99486.94;4518283;31;20378;-72
2022/04/03 02:25:17;;;;;;;17.73;12.18;;;;;;;0.10;100.00;99491.31;4518198;31;20459;-72
2022/04/03 02:27:46;;;;;;;20.73;12.95;;;;;;;0.19;100.00;99498.37;4518238;31;20541;-72
2022/04/03 02:30:14;;;;;;;19.52;12.88;;;;;;;0.19;100.00;99488.88;4518181;31;20555;-72
2022/04/03 02:32:41;;;;;;;20.08;13.13;;;;;;;0.15;100.00;99492.28;4518173;31;20100;-72
2022/04/03 02:35:10;;;;;;;25.08;14.00;;;;;;;0.20;100.00;99492.34;4518143;31;20375;-72
2022/04/03 02:37:40;;;;;;;24.10;14.50;;;;;;;0.19;100.00;99500.97;4518097;31;20163;-72
2022/04/03 02:40:10;;;;;;;22.67;14.98;;;;;;;0.15;100.00;99497.47;4518144;31;20167;-72
2022/04/03 02:42:37;;;;;;;24.42;14.68;;;;;;;0.12;100.00;99504.31;4518224;31;20087;-72
2022/04/03 02:45:05;;;;;;;23.52;14.52;;;;;;;0.05;100.00;99510.25;4517969;31;20096;-72
2022/04/03 02:47:33;;;;;;;20.70;13.60;;;;;;;-0.02;100.00;99515.31;4518113;31;20442;-72
2022/04/03 02:50:01;;;;;;;24.65;14.98;;;;;;;-0.01;100.00;99516.19;4518015;31;20091;-72
2022/04/03 02:52:28;;;;;;;26.20;15.80;;;;;;;-0.06;100.00;99530.78;4518011;31;20179;-72
2022/04/03 02:54:56;;;;;;;27.42;16.23;;;;;;;-0.05;100.00;99527.34;4518029;31;20638;-72
2022/04/03 02:57:24;;;;;;;27.80;16.25;;;;;;;-0.09;100.00;99530.72;4518069;31;20102;-72
2022/04/03 02:59:51;;;;;;;26.00;15.88;;;;;;;-0.11;100.00;99525.50;4518120;31;20231;-72
2022/04/03 03:02:19;;;;;;;24.95;14.93;;;;;;;-0.05;100.00;99535.97;4518022;31;20083;-72
2022/04/03 03:04:46;;;;;;;22.90;14.38;;;;;;;-0.01;100.00;99527.41;4517940;31;20157;-72
2022/04/03 03:07:14;;;;;;;24.73;15.20;;;;;;;0.13;100.00;99529.34;4517986;31;20126;-72
2022/04/03 03:09:42;;;;;;;22.33;14.23;;;;;;;0.05;100.00;99538.72;4516800;31;20418;-72
2022/04/03 03:12:09;;;;;;;25.65;15.88;;;;;;;0.11;100.00;99544.88;4517923;31;20155;-72
2022/04/03 03:14:37;;;;;;;23.80;15.13;;;;;;;0.13;100.00;99543.16;4517822;31;20171;-72
2022/04/03 03:17:04;;;;;;;23.85;15.18;;;;;;;0.26;100.00;99556.34;4517879;31;20458;-72
2022/04/03 03:19:31;;;;;;;25.52;14.82;;;;;;;0.13;100.00;99568.22;4517848;31;20528;-72
2022/04/03 03:21:59;;;;;;;25.02;15.60;;;;;;;0.18;100.00;99559.69;4518091;31;20490;-72
2022/04/03 03:24:26;;;;;;;21.25;13.48;;;;;;;0.28;100.00;99565.84;4503044;31;20099;-72
2022/04/03 03:26:53;;;;;;;23.10;14.85;;;;;;;0.29;100.00;99559.00;4517771;31;20456;-72
2022/04/03 03:29:20;;;;;;;23.65;15.02;;;;;;;0.18;100.00;99569.19;4517821;31;20090;-72
2022/04/03 03:31:47;;;;;;;23.87;14.30;;;;;;;0.29;100.00;99565.03;4517797;31;20079;-72
2022/04/03 03:34:14;;;;;;;24.02;15.93;;;;;;;0.28;100.00;99571.03;4517623;31;20122;-72
2022/04/03 03:36:42;;;;;;;24.55;14.40;;;;;;;0.24;100.00;99571.84;4517740;31;20162;-72
2022/04/03 03:39:09;;;;;;;22.02;14.27;;;;;;;0.27;100.00;99579.66;4517823;31;20472;-72
2022/04/03 03:41:36;;;;;;;21.25;13.00;;;;;;;0.31;100.00;99573.69;4517662;31;20522;-72
2022/04/03 03:44:09;;;;;;;19.52;13.07;;;;;;;0.42;100.00;99584.22;4517772;31;20194;-72
2022/04/03 03:46:38;;;;;;;21.40;13.62;;;;;;;0.51;100.00;99588.69;4517895;31;20459;-72
2022/04/03 03:49:07;;;;;;;16.77;11.93;;;;;;;0.56;100.00;99594.81;4517877;31;20524;-72
2022/04/03 03:51:35;;;;;;;17.05;11.35;;;;;;;0.54;100.00;99589.63;4517777;31;20528;-72
2022/04/03 03:54:03;;;;;;;16.02;11.15;;;;;;;0.50;100.00;99592.16;4517856;31;20449;-72
2022/04/03 03:56:31;;;;;;;14.10;9.80;;;;;;;0.46;100.00;99601.59;4517761;31;20196;-72
2022/04/03 03:58:58;;;;;;;15.93;10.68;;;;;;;0.39;100.00;99605.81;4517742;31;20117;-72
2022/04/03 04:01:27;;;;;;;13.15;9.65;;;;;;;0.27;100.00;99597.81;4517771;31;20087;-72
2022/04/03 04:03:54;;;;;;;12.15;8.68;;;;;;;0.26;100.00;99606.44;4518091;31;20103;-72
2022/04/03 04:06:21;;;;;;;12.37;8.63;;;;;;;0.38;100.00;99608.34;4517878;31;20465;-72
2022/04/03 04:08:48;;;;;;;13.38;9.00;;;;;;;0.45;100.00;99615.38;4517849;31;20106;-72
2022/04/03 04:11:16;;;;;;;14.75;10.15;;;;;;;0.42;100.00;99621.38;4517670;31;20087;-72
2022/04/03 04:13:43;;;;;;;14.15;9.30;;;;;;;0.43;100.00;99623.12;4517460;31;20462;-72
2022/04/03 04:16:10;;;;;;;19.95;13.30;;;;;;;0.46;100.00;99628.37;4517516;31;20103;-72
2022/04/03 04:18:38;;;;;;;19.27;12.90;;;;;;;0.54;100.00;99632.81;4517508;31;20071;-72
2022/04/03 04:21:06;;;;;;;17.25;11.73;;;;;;;0.53;100.00;99636.22;4517143;31;20413;-72
2022/04/03 04:23:33;;;;;;;16.98;11.70;;;;;;;0.53;100.00;99638.81;4517275;31;20096;-72
2022/04/03 04:26:00;;;;;;;14.68;10.15;;;;;;;0.54;100.00;99638.00;4517334;31;20211;-72
2022/04/03 04:28:27;;;;;;;11.52;8.85;;;;;;;0.51;100.00;99643.13;4517361;31;20186;-72
2022/04/03 04:30:57;;;;;;;11.68;8.55;;;;;;;0.52;100.00;99652.63;4517306;31;20388;-72
2022/04/03 04:33:25;;;;;;;11.80;7.47;;;;;;;0.56;100.00;99657.87;4517248;31;20119;-72
2022/04/03 04:35:52;;;;;;;9.98;7.25;;;;;;;0.65;100.00;99660.66;4517372;31;20131;-72
2022/04/03 04:38:19;;;;;;;8.80;7.32;;;;;;;0.66;100.00;99672.75;4517431;31;20228;-72
2022/04/03 04:40:48;;;;;;;9.43;7.05;;;;;;;0.64;100.00;99673.59;4517338;31;20118;-72
2022/04/03 04:43:15;;;;;;;9.10;6.82;;;;;;;0.61;100.00;99673.53;4517203;31;20092;-72
2022/04/03 04:45:42;;;;;;;9.07;7.57;;;;;;;0.60;100.00;99679.56;4517444;31;20095;-72
2022/04/03 04:48:09;;;;;;;10.73;7.60;;;;;;;0.64;100.00;99682.25;4502284;31;20113;-72
2022/04/03 04:50:36;;;;;;;13.95;7.93;;;;;;;0.61;100.00;99691.69;4517137;31;20130;-72
2022/04/03 04:53:04;;;;;;;10.52;7.82;;;;;;;0.64;100.00;99695.22;4502244;31;20131;-72
2022/04/03 04:55:31;;;;;;;8.68;7.07;;;;;;;0.71;100.00;99697.06;4517074;31;20431;-72
2022/04/03 04:57:58;;;;;;;8.57;6.72;;;;;;;0.73;100.00;99698.78;4517121;31;20086;-72
2022/04/03 05:00:31;;;;;;;8.52;7.35;;;;;;;0.68;100.00;99698.72;4516993;31;20519;-72
2022/04/03 05:02:59;;;;;;;9.05;6.57;;;;;;;0.61;100.00;99708.12;4516993;31;20107;-72
2022/04/03 05:05:27;;;;;;;8.25;6.87;;;;;;;0.62;100.00;99706.38;4517032;31;20742;-72
2022/04/03 05:07:56;;;;;;;8.35;6.55;;;;;;;0.64;100.00;99707.31;4516871;31;20183;-72
2022/04/03 05:10:25;;;;;;;10.52;7.47;;;;;;;0.68;100.00;99714.28;4516793;31;20159;-72
2022/04/03 05:12:56;;;;;;;9.07;7.12;;;;;;;0.71;100.00;99719.53;4516511;31;20423;-72
2022/04/03 05:15:23;;;;;;;9.82;7.12;;;;;;;0.70;100.00;99720.34;4516785;31;20150;-72
2022/04/03 05:17:51;;;;;;;10.25;7.03;;;;;;;0.70;100.00;99723.81;4516825;31;20102;-72
2022/04/03 05:20:18;;;;;;;9.77;7.15;;;;;;;0.70;100.00;99725.53;4516910;31;20107;-72
2022/04/03 05:22:45;;;;;;;9.43;7.70;;;;;;;0.80;100.00;99737.81;4516856;31;20600;-72
2022/04/03 05:25:12;;;;;;;8.65;6.47;;;;;;;0.71;100.00;99737.69;4516730;31;20447;-72
2022/04/03 05:27:41;;;;;;;9.07;7.00;;;;;;;0.76;100.00;99746.38;4516647;31;20091;-72
2022/04/03 05:30:10;;;;;;;8.75;7.07;;;;;;;0.89;100.00;99745.75;4516511;31;20530;-72
2022/04/03 05:32:37;;;;;;;11.12;7.90;;;;;;;0.96;100.00;99749.34;4516974;31;20888;-72
2022/04/03 05:35:06;;;;;;;12.52;8.07;;;;;;;0.92;100.00;99751.00;4518534;31;20472;-72
2022/04/03 05:37:40;;;;;;;12.98;8.40;;;;;;;0.89;100.00;99755.25;4504707;31;20537;-72
2022/04/03 05:40:11;;;;;;;12.02;8.05;;;;;;;0.91;100.00;99758.75;4518498;31;20095;-71
2022/04/03 05:42:39;;;;;;;9.93;7.47;;;;;;;0.92;100.00;99763.97;4518904;31;20470;-72
2022/04/03 05:45:08;;;;;;;11.50;7.40;;;;;;;0.94;100.00;99762.25;4518502;31;20091;-71
2022/04/03 05:47:35;;;;;;;11.57;6.75;;;;;;;0.87;100.00;99770.78;4518524;31;20634;-72
2022/04/03 05:50:09;;;;;;;10.68;7.15;;;;;;;0.84;100.00;99773.31;4518609;31;20178;-72
2022/04/03 05:52:45;;;;;;;8.88;6.50;;;;;;;0.87;100.00;99778.56;4518515;31;20099;-72
2022/04/03 05:55:14;;;;;;;8.43;6.15;;;;;;;1.01;100.00;99777.94;4518675;31;20134;-72
2022/04/03 05:57:41;;;;;;;7.37;6.10;;;;;;;0.92;100.00;99776.94;4518360;31;20526;-72
2022/04/03 06:00:14;;;;;;;8.52;6.75;;;;;;;0.87;100.00;99781.16;4518545;31;20122;-72
2022/04/03 06:03:02;;;;;;;7.65;6.47;;;;;;;1.00;100.00;99782.25;4518335;31;20163;-72
2022/04/03 06:05:38;;;;;;;9.27;7.37;;;;;;;1.02;100.00;99792.63;4518513;31;20087;-72
2022/04/03 06:08:06;;;;;;;7.55;6.70;;;;;;;1.10;100.00;99788.47;4518538;31;20079;-72
2022/04/03 06:10:34;;;;;;;10.13;7.00;;;;;;;1.18;100.00;99794.66;4518287;31;20155;-72
2022/04/03 06:13:02;;;;;;;10.30;7.32;;;;;;;1.28;100.00;99791.38;4518253;31;20514;-72
2022/04/03 06:15:36;;;;;;;8.90;7.03;;;;;;;1.37;100.00;99801.88;4518257;31;20938;-72
2022/04/03 06:18:06;;;;;;;9.32;7.37;;;;;;;1.43;100.00;99807.16;4518352;31;20739;-72
2022/04/03 06:20:35;;;;;;;11.27;7.40;;;;;;;1.34;100.00;99809.63;4518479;31;20100;-72
2022/04/03 06:23:09;;;;;;;9.73;7.62;;;;;;;1.28;100.00;99813.84;4518272;31;20519;-72
2022/04/03 06:25:42;;;;;;;9.90;8.23;;;;;;;1.30;100.00;99807.81;4518262;31;20535;-72
2022/04/03 06:28:10;;;;;;;10.55;8.05;;;;;;;1.36;100.00;99817.44;4518181;31;20120;-72
2022/04/03 06:30:37;;;;;;;9.60;8.15;;;;;;;1.41;100.00;99813.19;4518201;31;20769;-72
2022/04/03 06:33:05;;;;;;;10.35;8.02;;;;;;;1.42;100.00;99822.72;4518128;31;20088;-72
2022/04/03 06:35:32;;;;;;;10.88;8.93;;;;;;;1.35;100.00;99824.34;4518190;31;20854;-72
2022/04/03 06:37:59;;;;;;;11.75;9.05;;;;;;;1.42;100.00;99828.78;4518344;31;20110;-72
2022/04/03 06:40:27;;;;;;;12.05;8.63;;;;;;;1.50;100.00;99828.03;4518179;31;20114;-72
2022/04/03 06:42:55;;;;;;;12.85;9.60;;;;;;;1.43;100.00;99827.94;4518031;31;20130;-72
2022/04/03 06:45:23;;;;;;;13.62;10.18;;;;;;;1.39;100.00;99830.47;4518278;31;20099;-72
2022/04/03 06:47:50;;;;;;;14.57;10.75;;;;;;;1.48;100.00;99835.78;4518128;31;20586;-72
2022/04/03 06:50:19;;;;;;;14.87;10.18;;;;;;;1.44;100.00;99840.06;4518071;31;20100;-72
2022/04/03 06:52:47;;;;;;;16.05;10.73;;;;;;;1.49;100.00;99842.75;4517928;31;20447;-72
2022/04/03 06:55:14;;;;;;;17.70;11.23;;;;;;;1.56;100.00;99857.56;4518022;31;20504;-72
2022/04/03 06:57:41;;;;;;;17.15;11.32;;;;;;;1.53;100.00;99851.47;4518083;31;20083;-72
2022/04/03 07:00:09;;;;;;;17.17;11.48;;;;;;;1.49;100.00;99847.06;4517917;31;20083;-73
2022/04/03 07:02:36;;;;;;;17.48;12.15;;;;;;;1.56;100.00;99854.97;4502889;31;20557;-72
2022/04/03 07:05:04;;;;;;;22.80;12.98;;;;;;;1.65;100.00;99854.22;4518181;31;20170;-72
2022/04/03 07:07:32;;;;;;;17.62;12.48;;;;;;;1.68;100.00;99862.94;4517771;31;20076;-72
2022/04/03 07:09:59;;;;;;;22.27;12.30;;;;;;;1.91;100.00;99867.62;4517993;31;20143;-72
2022/04/03 07:12:26;;;;;;;27.98;13.60;;;;;;;1.88;100.00;99871.06;4517615;31;20189;-72
2022/04/03 07:14:56;;;;;;;22.75;14.02;;;;;;;1.83;100.00;99875.28;4518001;31;20152;-72
2022/04/03 07:17:23;;;;;;;24.45;15.43;;;;;;;1.91;100.00;99881.50;4517864;31;20102;-72
2022/04/03 07:19:51;;;;;;;25.25;16.67;;;;;;;1.98;100.00;99884.16;4517808;31;20096;-72
2022/04/03 07:22:18;;;;;;;25.92;16.80;;;;;;;2.10;100.00;99885.22;4517684;31;20540;-72
2022/04/03 07:24:45;;;;;;;26.62;17.45;;;;;;;2.19;100.00;99900.09;4518081;31;20158;-72
2022/04/03 07:27:12;;;;;;;30.27;18.87;;;;;;;2.19;100.00;99896.59;4517688;31;20138;-72
2022/04/03 07:29:39;;;;;;;46.55;24.20;;;;;;;2.29;100.00;99901.94;4517507;31;20130;-72
2022/04/03 07:32:08;;;;;;;65.57;30.55;;;;;;;2.42;100.00;99908.19;4517719;31;20118;-72
2022/04/03 07:34:35;;;;;;;54.80;25.77;;;;;;;2.42;100.00;99917.72;4517847;31;20159;-72
2022/04/03 07:37:02;;;;;;;46.05;24.10;;;;;;;2.37;100.00;99915.06;4517930;31;20102;-72
2022/04/03 07:39:30;;;;;;;45.88;21.33;;;;;;;2.14;99.77;99923.38;4517521;31;20498;-72
2022/04/03 07:41:57;;;;;;;33.90;17.45;;;;;;;2.30;100.00;99928.84;4517631;31;20087;-72
2022/04/03 07:44:24;;;;;;;48.05;25.27;;;;;;;2.38;99.76;99932.41;4517588;31;20099;-72
2022/04/03 07:46:52;;;;;;;37.35;22.55;;;;;;;2.30;97.47;99934.91;4517499;31;20669;-72
2022/04/03 07:49:19;;;;;;;33.90;18.77;;;;;;;2.27;98.26;99940.06;4517480;31;20575;-72
2022/04/03 07:51:46;;;;;;;36.60;21.85;;;;;;;2.26;99.32;99937.41;4517472;31;20130;-72
2022/04/03 07:54:14;;;;;;;35.13;17.85;;;;;;;2.31;100.00;99947.03;4517514;31;20159;-72
2022/04/03 07:56:44;;;;;;;40.15;20.88;;;;;;;2.35;98.62;99956.63;4517073;31;20698;-72
2022/04/03 07:59:11;;;;;;;38.58;17.95;;;;;;;2.44;99.33;99955.00;4517394;31;20419;-72
2022/04/03 08:01:39;;;;;;;32.28;18.23;;;;;;;2.70;98.28;99961.44;4517243;31;20118;-72
2022/04/03 08:04:07;;;;;;;31.98;14.90;;;;;;;2.79;98.19;99965.88;4517467;31;20099;-72
2022/04/03 08:06:46;;;;;;;23.70;14.55;;;;;;;2.76;95.62;99968.47;4517213;31;20088;-72
2022/04/03 08:09:17;;;;;;;26.42;13.90;;;;;;;2.79;92.90;99982.38;4517416;31;20084;-72
2022/04/03 08:11:50;;;;;;;23.05;13.62;;;;;;;2.67;94.94;99976.13;4517152;31;20095;-72
2022/04/03 08:14:19;;;;;;;27.30;13.98;;;;;;;2.70;91.27;99984.84;4517217;31;20100;-72
2022/04/03 08:16:59;;;;;;;29.23;13.15;;;;;;;2.63;93.00;99981.28;4517320;31;20560;-72
2022/04/03 08:19:26;;;;;;;21.65;12.73;;;;;;;2.70;92.20;99992.66;4516676;31;20130;-72
2022/04/03 08:21:54;;;;;;;24.45;13.13;;;;;;;2.86;91.90;99991.13;4515606;31;20160;-72
2022/04/03 08:24:21;;;;;;;23.95;12.43;;;;;;;2.93;87.72;99999.88;4515626;31;20108;-72
2022/04/03 08:26:49;;;;;;;21.25;11.85;;;;;;;3.00;87.92;99999.09;4515770;31;20147;-72
2022/04/03 08:29:16;;;;;;;23.10;12.23;;;;;;;2.81;87.16;100005.81;4515772;31;20121;-72
2022/04/03 08:31:43;;;;;;;25.00;11.65;;;;;;;2.78;88.09;100008.34;4515509;31;20087;-72
2022/04/03 08:34:11;;;;;;;23.65;11.38;;;;;;;2.98;88.80;100012.09;4501253;31;20118;-72
2022/04/03 08:36:58;;;;;;;19.73;12.60;;;;;;;3.25;87.23;100018.50;4517412;31;20454;-72
2022/04/03 08:39:28;;;;;;;23.33;13.43;;;;;;;3.66;87.92;100020.69;4517151;31;20108;-72
2022/04/03 08:42:06;;;;;;;38.97;14.20;;;;;;;3.76;84.71;100023.41;4517073;31;20103;-72
2022/04/03 08:44:33;;;;;;;38.35;17.42;;;;;;;3.95;83.32;100018.34;4517131;31;20150;-72
2022/04/03 08:47:01;;;;;;;26.12;14.65;;;;;;;3.81;85.48;100016.47;4516997;31;20083;-72
2022/04/03 08:49:31;;;;;;;17.42;10.75;;;;;;;3.83;86.12;100029.56;4517123;31;20095;-72
2022/04/03 08:51:59;;;;;;;24.90;11.25;;;;;;;3.87;81.54;100035.66;4516969;31;20138;-72
2022/04/03 08:54:28;;;;;;;25.88;12.40;;;;;;;3.86;80.54;100033.94;4517041;31;20087;-72
2022/04/03 08:56:55;;;;;;;24.45;12.25;;;;;;;3.52;80.81;100037.03;4516782;31;20224;-72
2022/04/03 08:59:22;;;;;;;22.05;11.65;;;;;;;3.50;82.61;100046.59;4516844;31;20099;-72
2022/04/03 09:01:50;;;;;;;23.45;12.07;;;;;;;3.45;83.01;100042.16;4516890;31;20459;-72
2022/04/03 09:04:20;;;;;;;22.98;11.48;;;;;;;3.17;84.71;100039.22;4517245;31;20099;-72
2022/04/03 09:06:55;;;;;;;19.92;11.90;;;;;;;3.18;82.73;100034.88;4516907;31;20371;-72
2022/04/03 09:09:24;;;;;;;29.80;12.23;;;;;;;3.12;83.53;100030.50;4518771;31;20139;-72
2022/04/03 09:12:12;;;;;;;23.90;12.32;;;;;;;3.09;86.67;100033.94;4518625;31;20164;-72
2022/04/03 09:14:47;;;;;;;22.42;13.00;;;;;;;3.26;86.64;100021.13;4504072;31;20167;-72
2022/04/03 09:17:38;;;;;;;23.67;14.00;;;;;;;3.35;82.66;100018.62;4518796;31;20935;-72
2022/04/03 09:20:08;;;;;;;21.73;13.38;;;;;;;3.75;83.94;100026.87;4518989;31;20075;-72
2022/04/03 09:22:37;;;;;;;22.15;12.55;;;;;;;3.92;84.18;100032.25;4518589;31;20087;-72
2022/04/03 09:25:07;;;;;;;29.20;13.13;;;;;;;4.28;82.16;100039.50;4518729;31;20126;-72
2022/04/03 09:27:35;;;;;;;21.65;12.13;;;;;;;4.40;81.54;100043.94;4518811;31;20087;-72
2022/04/03 09:30:07;;;;;;;19.75;12.73;;;;;;;4.59;79.47;100042.31;4518701;31;20091;-72
2022/04/03 09:32:35;;;;;;;22.27;12.77;;;;;;;4.70;77.71;100050.22;4518493;31;20080;-72
2022/04/03 09:35:02;;;;;;;20.65;12.63;;;;;;;4.61;77.33;100043.22;4518585;31;20092;-72
2022/04/03 09:37:32;;;;;;;24.65;11.50;;;;;;;4.97;78.51;100052.12;4518546;31;20083;-73
2022/04/03 09:39:59;;;;;;;20.25;12.25;;;;;;;5.19;75.13;100061.81;4518635;31;20132;-72
2022/04/03 09:42:28;;;;;;;19.80;11.88;;;;;;;5.30;73.70;100051.44;4518617;31;20179;-72
2022/04/03 09:45:03;;;;;;;18.05;12.15;;;;;;;5.51;74.11;100068.91;4518467;31;20115;-72
2022/04/03 09:47:32;;;;;;;19.35;12.50;;;;;;;5.20;75.68;100063.59;4518191;31;20446;-72
2022/04/03 09:50:01;;;;;;;26.08;11.85;;;;;;;5.07;74.89;100068.75;4518277;31;20117;-72
2022/04/03 09:52:51;;;;;;;22.70;13.30;;;;;;;5.17;74.42;100063.56;4518334;31;20088;-72
2022/04/03 09:55:21;;;;;;;23.98;12.95;;;;;;;5.30;73.48;100072.34;4518502;31;20111;-72
2022/04/03 09:58:05;;;;;;;27.45;14.87;;;;;;;5.26;74.24;100081.91;4518408;31;20482;-72
2022/04/03 10:00:48;;;;;;;22.87;12.88;;;;;;;5.06;73.17;100080.94;4518475;31;20092;-72
2022/04/03 10:03:16;;;;;;;26.45;11.90;;;;;;;4.87;76.04;100081.66;4518363;31;20454;-72
2022/04/03 10:05:44;;;;;;;20.52;12.52;;;;;;;5.00;74.27;100076.53;4518408;31;20091;-72
2022/04/03 10:08:12;;;;;;;21.50;11.23;;;;;;;5.17;74.31;100076.62;4518578;31;20713;-72
2022/04/03 10:10:40;;;;;;;25.05;13.70;;;;;;;5.31;72.87;100083.66;4518298;31;20112;-72
2022/04/03 10:13:10;;;;;;;21.77;12.50;;;;;;;5.27;70.20;100081.03;4518155;31;20095;-72
2022/04/03 10:15:38;;;;;;;26.35;12.27;;;;;;;5.39;70.51;100090.66;4518459;31;20454;-72
2022/04/03 10:18:06;;;;;;;28.02;11.75;;;;;;;5.37;71.31;100084.56;4518143;31;20143;-72
2022/04/03 10:20:36;;;;;;;18.25;10.93;;;;;;;5.30;67.37;100087.13;4518314;31;20126;-72
2022/04/03 10:23:10;;;;;;;25.42;11.90;;;;;;;5.22;67.52;100106.25;4518154;31;20122;-72
2022/04/03 10:25:44;;;;;;;16.73;10.88;;;;;;;5.67;66.65;100083.78;4518177;31;20511;-72
2022/04/03 10:28:16;;;;;;;25.85;11.77;;;;;;;5.69;66.81;100097.75;4518279;31;20095;-72
2022/04/03 10:30:43;;;;;;;17.90;11.48;;;;;;;5.64;67.18;100083.78;4518244;31;20523;-72
2022/04/03 10:33:24;;;;;;;15.93;11.25;;;;;;;5.77;65.43;100108.22;4518030;31;20098;-72
2022/04/03 10:36:17;;;;;;;21.85;12.02;;;;;;;5.59;65.65;100095.97;4518465;31;20087;-72
2022/04/03 10:38:55;;;;;;;17.37;11.12;;;;;;;5.70;65.39;100104.72;4518239;31;20131;-72
2022/04/03 10:41:34;;;;;;;18.17;10.65;;;;;;;6.15;64.08;100110.97;4518249;31;20214;-72
2022/04/03 10:44:33;;;;;;;19.62;10.77;;;;;;;6.10;64.98;100098.75;4518596;31;20114;-72
2022/04/03 10:47:03;;;;;;;21.55;10.85;;;;;;;6.55;65.76;100104.91;4515206;31;20163;-72
2022/04/03 10:49:57;;;;;;;18.30;10.50;;;;;;;6.62;61.75;100112.75;4518089;31;20525;-72
2022/04/03 10:52:36;;;;;;;19.48;10.38;;;;;;;6.66;60.09;100106.62;4518229;31;20505;-72
2022/04/03 10:55:34;;;;;;;19.95;11.05;;;;;;;6.72;61.03;100108.37;4518344;31;20110;-72
2022/04/03 10:58:04;;;;;;;12.45;9.63;;;;;;;7.12;60.09;100103.06;4518478;31;20094;-72
2022/04/03 11:00:33;;;;;;;16.48;9.45;;;;;;;7.01;58.96;100110.97;4518080;31;20544;-72
2022/04/03 11:03:27;;;;;;;17.75;9.70;;;;;;;7.34;59.04;100111.75;4518247;31;20087;-72
2022/04/03 11:06:22;;;;;;;14.90;9.20;;;;;;;7.30;56.77;100110.00;4518465;31;20088;-72
2022/04/03 11:08:58;;;;;;;16.75;9.88;;;;;;;6.98;59.52;100113.59;4518154;31;20779;-72
2022/04/03 11:11:49;;;;;;;14.20;9.53;;;;;;;7.49;55.12;100130.06;4518436;31;20465;-72
2022/04/03 11:14:51;;;;;;;19.05;9.70;;;;;;;8.09;54.65;100122.78;4518274;31;20106;-72
2022/04/03 11:17:39;;;;;;;19.75;9.48;;;;;;;8.79;52.77;100124.03;4517995;31;20166;-72
2022/04/03 11:20:07;;;;;;;16.98;9.65;;;;;;;9.56;50.24;100129.38;4517831;31;20150;-72
2022/04/03 11:22:35;;;;;;;15.60;9.07;;;;;;;10.12;50.50;100126.03;4518098;31;20087;-72
2022/04/03 11:25:04;;;;;;;18.27;9.35;;;;;;;10.23;46.09;100132.88;4517918;31;20083;-72
2022/04/03 11:27:31;;;;;;;12.98;8.27;;;;;;;10.58;43.95;100134.16;4517885;31;20125;-69
2022/04/03 11:29:59;;;;;;;11.57;8.05;;;;;;;10.29;46.09;100137.22;4517238;31;20100;-69
2022/04/03 11:32:27;;;;;;;14.00;7.75;;;;;;;11.08;47.36;100127.12;4517957;31;20080;-69